| time (UTC) | temp F | wind direction | speed MPH | gust MPH | rain 1hr in | rain 24hr in | rain mn in | humidity % | barometer mb |
| 20260506193759 | 53 | 69 | 0.0 | 1.0 | 0.00 | 0.00 | 0.00 | 75 | 1010.8 |
| 20260506192759 | 53 | 69 | 0.0 | 2.0 | 0.00 | 0.00 | 0.00 | 74 | 1010.7 |
| 20260506191801 | 53 | 69 | 0.0 | 3.0 | 0.00 | 0.00 | 0.00 | 75 | 1010.7 |
| 20260506190800 | 54 | 69 | 1.0 | 3.0 | 0.00 | 0.00 | 0.00 | 74 | 1010.5 |
| 20260506185757 | 54 | 69 | 2.0 | 3.0 | 0.00 | 0.00 | 0.00 | 72 | 1010.4 |
| 20260506184759 | 54 | 69 | 2.0 | 4.0 | 0.00 | 0.00 | 0.00 | 72 | 1010.3 |
| 20260506183757 | 54 | 69 | 2.0 | 4.0 | 0.00 | 0.00 | 0.00 | 71 | 1010.2 |
| 20260506182757 | 54 | 68 | 3.0 | 7.0 | 0.00 | 0.00 | 0.00 | 72 | 1010.1 |
| 20260506181755 | 54 | 75 | 2.0 | 4.0 | 0.00 | 0.00 | 0.00 | 72 | 1010.0 |
| 20260506180753 | 54 | 75 | 3.0 | 5.0 | 0.00 | 0.00 | 0.00 | 71 | 1009.9 |
| 20260506175752 | 54 | 75 | 3.0 | 5.0 | 0.00 | 0.00 | 0.00 | 70 | 1009.8 |
| 20260506174752 | 55 | 76 | 4.0 | 10.0 | 0.00 | 0.00 | 0.00 | 69 | 1009.7 |
| 20260506173751 | 55 | 69 | 6.0 | 10.0 | 0.00 | 0.00 | 0.00 | 69 | 1009.6 |
| 20260506172751 | 55 | 70 | 8.0 | 12.0 | 0.00 | 0.00 | 0.00 | 69 | 1009.5 |
| 20260506171753 | 55 | 73 | 8.0 | 13.0 | 0.00 | 0.00 | 0.00 | 67 | 1009.4 |
| 20260506170751 | 55 | 63 | 5.0 | 10.0 | 0.00 | 0.00 | 0.00 | 68 | 1009.4 |
| 20260506165741 | 56 | 65 | 6.0 | 13.0 | 0.00 | 0.00 | 0.00 | 66 | 1009.3 |
| 20260506165223 | 56 | 71 | 7.0 | 13.0 | 0.00 | 0.00 | 0.00 | 67 | 1009.2 |
| 20260506163741 | 56 | 59 | 5.0 | 10.0 | 0.00 | 0.00 | 0.00 | 66 | 1009.1 |
| 20260506162743 | 56 | 63 | 4.0 | 9.0 | 0.00 | 0.00 | 0.00 | 66 | 1009.1 |
| 20260506161741 | 56 | 74 | 5.0 | 13.0 | 0.00 | 0.00 | 0.00 | 65 | 1009.1 |
| 20260506161219 | 56 | 59 | 9.0 | 14.0 | 0.00 | 0.00 | 0.00 | 66 | 1009.1 |
| 20260506155743 | 56 | 48 | 8.0 | 14.0 | 0.00 | 0.00 | 0.00 | 66 | 1009.0 |
| 20260506154741 | 56 | 63 | 7.0 | 14.0 | 0.00 | 0.00 | 0.00 | 65 | 1009.0 |
| 20260506153741 | 57 | 64 | 9.0 | 16.0 | 0.00 | 0.00 | 0.00 | 63 | 1009.1 |
| 20260506152739 | 58 | 64 | 10.0 | 18.0 | 0.00 | 0.00 | 0.00 | 62 | 1009.0 |
| 20260506151741 | 58 | 57 | 6.0 | 14.0 | 0.00 | 0.00 | 0.00 | 62 | 1008.9 |
| 20260506150741 | 58 | 69 | 8.0 | 18.0 | 0.00 | 0.00 | 0.00 | 62 | 1008.9 |
| 20260506145739 | 58 | 42 | 5.0 | 13.0 | 0.00 | 0.00 | 0.00 | 61 | 1008.9 |
| 20260506144740 | 58 | 32 | 4.0 | 10.0 | 0.00 | 0.00 | 0.00 | 59 | 1008.8 |
| 20260506143741 | 58 | 63 | 5.0 | 12.0 | 0.00 | 0.00 | 0.00 | 59 | 1008.8 |
| 20260506142739 | 58 | 68 | 5.0 | 13.0 | 0.00 | 0.00 | 0.00 | 62 | 1008.7 |
| 20260506141739 | 58 | 19 | 4.0 | 10.0 | 0.00 | 0.00 | 0.00 | 64 | 1008.7 |
| 20260506140739 | 58 | 64 | 5.0 | 11.0 | 0.00 | 0.00 | 0.00 | 65 | 1008.8 |
| 20260506135739 | 59 | 0 | 5.0 | 15.0 | 0.00 | 0.00 | 0.00 | 65 | 1008.7 |
| 20260506134741 | 60 | 59 | 3.0 | 9.0 | 0.00 | 0.00 | 0.00 | 64 | 1008.7 |
| 20260506133737 | 60 | 44 | 5.0 | 13.0 | 0.00 | 0.00 | 0.00 | 65 | 1008.6 |
| 20260506133215 | 60 | 355 | 4.0 | 11.0 | 0.00 | 0.00 | 0.00 | 66 | 1008.6 |
| 20260506131737 | 60 | 13 | 5.0 | 13.0 | 0.00 | 0.00 | 0.00 | 66 | 1008.6 |
| 20260506130737 | 60 | 55 | 5.0 | 11.0 | 0.00 | 0.00 | 0.00 | 65 | 1008.6 |
| 20260506125737 | 60 | 62 | 4.0 | 11.0 | 0.00 | 0.00 | 0.00 | 67 | 1008.5 |
| 20260506124737 | 59 | 69 | 5.0 | 11.0 | 0.00 | 0.00 | 0.00 | 67 | 1008.4 |
| 20260506124214 | 58 | 347 | 4.0 | 10.0 | 0.00 | 0.00 | 0.00 | 69 | 1008.4 |
| 20260506122737 | 58 | 72 | 4.0 | 10.0 | 0.00 | 0.00 | 0.00 | 68 | 1008.3 |
| 20260506121737 | 58 | 49 | 2.0 | 8.0 | 0.00 | 0.00 | 0.00 | 63 | 1008.4 |
| 20260506120737 | 59 | 134 | 2.0 | 9.0 | 0.00 | 0.00 | 0.00 | 67 | 1008.4 |
| 20260506115739 | 60 | 10 | 4.0 | 11.0 | 0.00 | 0.00 | 0.00 | 64 | 1008.2 |
| 20260506114737 | 61 | 329 | 4.0 | 12.0 | 0.00 | 0.00 | 0.00 | 68 | 1008.2 |
| 20260506114212 | 61 | 33 | 4.0 | 11.0 | 0.00 | 0.00 | 0.00 | 67 | 1008.1 |
| 20260506112735 | 60 | 21 | 3.0 | 9.0 | 0.00 | 0.00 | 0.00 | 70 | 1008.1 |
| 20260506111737 | 59 | 11 | 2.0 | 9.0 | 0.00 | 0.00 | 0.00 | 69 | 1008.2 |
| 20260506110735 | 58 | 345 | 3.0 | 9.0 | 0.00 | 0.00 | 0.00 | 72 | 1008.1 |
| 20260506105733 | 57 | 63 | 3.0 | 7.0 | 0.00 | 0.00 | 0.00 | 70 | 1008.1 |
| 20260506105209 | 57 | 350 | 2.0 | 6.0 | 0.00 | 0.00 | 0.00 | 72 | 1008.2 |
| 20260506102733 | 57 | 16 | 2.0 | 5.0 | 0.00 | 0.00 | 0.00 | 75 | 1008.2 |
| 20260506101732 | 57 | 351 | 2.0 | 8.0 | 0.00 | 0.00 | 0.00 | 75 | 1008.1 |
| 20260506100735 | 57 | 11 | 4.0 | 9.0 | 0.00 | 0.00 | 0.00 | 77 | 1008.0 |
| 20260506094731 | 58 | 327 | 3.0 | 11.0 | 0.00 | 0.00 | 0.00 | 74 | 1008.0 |
| 20260506093732 | 58 | 248 | 3.0 | 11.0 | 0.00 | 0.00 | 0.00 | 76 | 1007.9 |
| 20260506093216 | 58 | 266 | 4.0 | 10.0 | 0.00 | 0.00 | 0.00 | 77 | 1008.0 |
| 20260506091732 | 58 | 329 | 3.0 | 9.0 | 0.00 | 0.00 | 0.00 | 77 | 1008.0 |
| 20260506085731 | 56 | 200 | 2.0 | 7.0 | 0.00 | 0.00 | 0.00 | 81 | 1007.8 |
| 20260506084730 | 56 | 46 | 3.0 | 10.0 | 0.00 | 0.00 | 0.00 | 82 | 1007.9 |
| 20260506083732 | 55 | 38 | 3.0 | 9.0 | 0.00 | 0.00 | 0.00 | 83 | 1007.8 |
| 20260506082730 | 55 | 28 | 3.0 | 9.0 | 0.00 | 0.00 | 0.00 | 83 | 1007.7 |
| 20260506081729 | 55 | 67 | 2.0 | 9.0 | 0.00 | 0.00 | 0.00 | 86 | 1007.7 |
| 20260506080730 | 54 | 322 | 2.0 | 8.0 | 0.00 | 0.00 | 0.00 | 85 | 1007.7 |
| 20260506072729 | 53 | 311 | 2.0 | 8.0 | 0.00 | 0.00 | 0.00 | 90 | 1007.6 |
| 20260506071730 | 52 | 321 | 3.0 | 7.0 | 0.00 | 0.00 | 0.00 | 91 | 1007.7 |
| 20260506070727 | 52 | 333 | 2.0 | 6.0 | 0.00 | 0.00 | 0.00 | 92 | 1007.6 |
| 20260506061726 | 50 | 323 | 2.0 | 6.0 | 0.00 | 0.00 | 0.00 | 98 | 1007.5 |
| 20260506060724 | 49 | 288 | 2.0 | 8.0 | 0.00 | 0.00 | 0.00 | 98 | 1007.4 |
| 20260506050722 | 49 | 316 | 2.0 | 5.0 | 0.00 | 0.00 | 0.00 | 97 | 1007.4 |
| 20260506044723 | 49 | 25 | 2.0 | 6.0 | 0.00 | 0.00 | 0.00 | 96 | 1007.5 |
| 20260506043723 | 49 | 19 | 1.0 | 6.0 | 0.00 | 0.00 | 0.00 | 96 | 1007.5 |
| 20260506042723 | 49 | 5 | 1.0 | 5.0 | 0.00 | 0.00 | 0.00 | 95 | 1007.5 |
| 20260506041718 | 49 | 355 | 1.0 | 7.0 | 0.00 | 0.00 | 0.00 | 94 | 1007.5 |
| 20260506040719 | 49 | 339 | 2.0 | 6.0 | 0.00 | 0.00 | 0.00 | 93 | 1007.5 |
| 20260506035719 | 49 | 45 | 2.0 | 5.0 | 0.00 | 0.00 | 0.00 | 92 | 1007.4 |
| 20260506034720 | 49 | 39 | 2.0 | 6.0 | 0.00 | 0.00 | 0.00 | 91 | 1007.5 |
| 20260506033718 | 49 | 46 | 2.0 | 8.0 | 0.00 | 0.00 | 0.00 | 90 | 1007.5 |
| 20260506031717 | 49 | 355 | 2.0 | 8.0 | 0.00 | 0.00 | 0.00 | 89 | 1007.6 |
| 20260506030716 | 49 | 309 | 3.0 | 10.0 | 0.00 | 0.00 | 0.00 | 89 | 1007.6 |
| 20260506025718 | 49 | 336 | 3.0 | 6.0 | 0.00 | 0.00 | 0.00 | 90 | 1007.6 |
| 20260506024717 | 49 | 53 | 2.0 | 6.0 | 0.00 | 0.00 | 0.00 | 90 | 1007.7 |
| 20260506023716 | 49 | 294 | 3.0 | 8.0 | 0.00 | 0.00 | 0.00 | 90 | 1007.8 |
| 20260506022718 | 49 | 355 | 2.0 | 8.0 | 0.00 | 0.00 | 0.00 | 90 | 1007.8 |
| 20260506021717 | 49 | 327 | 2.0 | 7.0 | 0.00 | 0.00 | 0.00 | 90 | 1007.9 |
| 20260506020717 | 49 | 294 | 2.0 | 6.0 | 0.00 | 0.00 | 0.00 | 89 | 1007.9 |
| 20260506015717 | 49 | 315 | 2.0 | 6.0 | 0.00 | 0.00 | 0.00 | 89 | 1007.9 |
| 20260506014717 | 49 | 296 | 2.0 | 6.0 | 0.00 | 0.00 | 0.00 | 88 | 1007.9 |
| 20260506013716 | 49 | 327 | 2.0 | 6.0 | 0.00 | 0.00 | 0.00 | 88 | 1007.9 |
| 20260506012717 | 49 | 321 | 2.0 | 6.0 | 0.00 | 0.00 | 0.00 | 88 | 1007.9 |
| 20260506011715 | 49 | 320 | 2.0 | 7.0 | 0.00 | 0.00 | 0.00 | 88 | 1007.9 |
| 20260506010715 | 49 | 305 | 2.0 | 8.0 | 0.00 | 0.00 | 0.00 | 87 | 1008.0 |
| 20260506005714 | 49 | 355 | 2.0 | 7.0 | 0.00 | 0.00 | 0.00 | 88 | 1008.1 |
| 20260506004716 | 49 | 355 | 3.0 | 7.0 | 0.00 | 0.00 | 0.00 | 87 | 1008.2 |
| 20260506003714 | 49 | 32 | 2.0 | 9.0 | 0.00 | 0.00 | 0.00 | 87 | 1008.3 |
| 20260506002714 | 49 | 32 | 2.0 | 8.0 | 0.00 | 0.00 | 0.00 | 87 | 1008.3 |
| 20260506001712 | 49 | 300 | 2.0 | 5.0 | 0.00 | 0.00 | 0.00 | 87 | 1008.4 |
| 20260506000158 | 49 | 306 | 2.0 | 5.0 | 0.00 | 0.00 | 0.00 | 87 | 1008.6 |
| 20260505235149 | 48 | 333 | 2.0 | 5.0 | 0.00 | 0.00 | 0.00 | 88 | 1008.6 |
| 20260505233709 | 48 | 308 | 1.0 | 5.0 | 0.00 | 0.00 | 0.00 | 88 | 1008.6 |
| 20260505233154 | 48 | 50 | 1.0 | 3.0 | 0.00 | 0.00 | 0.00 | 87 | 1008.7 |
| 20260505231708 | 48 | 348 | 1.0 | 3.0 | 0.00 | 0.00 | 0.00 | 87 | 1008.7 |
| 20260505230709 | 48 | 355 | 1.0 | 3.0 | 0.00 | 0.00 | 0.00 | 87 | 1008.8 |
| 20260505224710 | 48 | 5 | 1.0 | 4.0 | 0.00 | 0.00 | 0.00 | 87 | 1008.8 |
| 20260505223710 | 49 | 28 | 2.0 | 6.0 | 0.00 | 0.00 | 0.00 | 87 | 1008.9 |
| 20260505222710 | 49 | 15 | 1.0 | 7.0 | 0.00 | 0.00 | 0.00 | 87 | 1009.0 |
| 20260505222147 | 49 | 344 | 2.0 | 5.0 | 0.00 | 0.00 | 0.00 | 87 | 1008.9 |
| 20260505220708 | 49 | 11 | 2.0 | 6.0 | 0.00 | 0.00 | 0.00 | 87 | 1009.0 |
| 20260505215708 | 49 | 348 | 1.0 | 4.0 | 0.00 | 0.00 | 0.00 | 87 | 1009.0 |
| 20260505214708 | 50 | 342 | 2.0 | 4.0 | 0.00 | 0.00 | 0.00 | 86 | 1009.1 |
| 20260505214147 | 50 | 268 | 2.0 | 6.0 | 0.00 | 0.00 | 0.00 | 86 | 1009.1 |
| 20260505212712 | 50 | 32 | 1.0 | 5.0 | 0.00 | 0.00 | 0.00 | 85 | 1009.1 |
| 20260505211709 | 50 | 19 | 2.0 | 9.0 | 0.00 | 0.00 | 0.00 | 85 | 1009.2 |
| 20260505210708 | 50 | 28 | 2.0 | 6.0 | 0.00 | 0.00 | 0.00 | 85 | 1009.1 |
| 20260505205709 | 51 | 17 | 2.0 | 9.0 | 0.00 | 0.00 | 0.00 | 84 | 1009.2 |
| 20260505204708 | 51 | 38 | 3.0 | 9.0 | 0.00 | 0.00 | 0.00 | 84 | 1009.2 |
| 20260505203706 | 51 | 70 | 3.0 | 8.0 | 0.00 | 0.00 | 0.00 | 83 | 1009.2 |
| 20260505202706 | 51 | 42 | 2.0 | 9.0 | 0.00 | 0.00 | 0.00 | 84 | 1009.2 |
| 20260505201707 | 51 | 28 | 2.0 | 9.0 | 0.00 | 0.00 | 0.00 | 84 | 1009.3 |
| 20260505200705 | 51 | 342 | 3.0 | 10.0 | 0.00 | 0.00 | 0.00 | 84 | 1009.3 |
| 20260505195704 | 52 | 169 | 3.0 | 10.0 | 0.00 | 0.00 | 0.00 | 83 | 1009.1 |
| 20260505194705 | 52 | 13 | 2.0 | 10.0 | 0.00 | 0.00 | 0.00 | 84 | 1009.1 |